Babun Express — ERZZ — position and weather

sailwx.info

Track history (hours):
 
Tides and Currents Weather Stations Pressure Air Temp Water Temp Dewpoint Dewpoint Depression Visibility Wind Speed Wind Dir Waves Ship Positions

Babun Express

Last reported at 2017-Oct-15 04:09 UTC. Time now 2017-Oct-17 20:17 UTC.
Position N 25°22' W 079°54'.

Length 91 m; draft 3.9 m.

Type: Cargo ship. MMSI: 214182626.

Date/timePositionNaut miles runAvg speedWind from/ knotsBaromVisibWave heightAir tempDewpointWater temp
2017-Oct-15 04:09N 25°22' W 079°54'2 9.1
2017-Oct-15 03:59N 25°23' W 079°55'4 9.2
2017-Oct-15 03:30N 25°27' W 079°56'5 9.5
2017-Oct-15 03:00N 25°32' W 079°59'5 9.7
2017-Oct-15 02:31N 25°36' W 080°01'5 9.6
2017-Oct-15 02:00N 25°41' W 080°03'611.7
2017-Oct-15 01:30N 25°46' W 080°05'4 8.1
2017-Oct-15 01:00N 25°46' W 080°10'2 3.0
2017-Oct-15 00:24N 25°46' W 080°12'1 2.6
2017-Oct-15 00:00N 25°47' W 080°13'1 2.7
2017-Oct-14 23:29N 25°47' W 080°14'1 1.4
2017-Oct-14 22:59N 25°48' W 080°15'0 0.0
2017-Oct-14 22:29N 25°48' W 080°15'0 0.0
2017-Oct-14 21:59N 25°48' W 080°15'0 0.0
2017-Oct-14 21:29N 25°48' W 080°15'0 0.0
2017-Oct-14 20:59N 25°48' W 080°15'0 0.0
2017-Oct-14 20:29N 25°48' W 080°15'0 0.0
2017-Oct-14 19:59N 25°48' W 080°15'0 0.0
2017-Oct-14 19:29N 25°48' W 080°15'0 0.0
2017-Oct-14 18:59N 25°48' W 080°15'0 0.0
2017-Oct-14 18:29N 25°48' W 080°15'0 0.0
2017-Oct-14 17:59N 25°48' W 080°15'0 0.0
2017-Oct-14 17:29N 25°48' W 080°15'0 0.0
2017-Oct-14 16:59N 25°48' W 080°15'0 0.0
2017-Oct-14 16:29N 25°48' W 080°15'0 0.0
2017-Oct-14 15:59N 25°48' W 080°15'0 0.0
2017-Oct-14 15:29N 25°48' W 080°15'0 0.0
2017-Oct-14 14:59N 25°48' W 080°15'0 0.0
2017-Oct-14 14:29N 25°48' W 080°15'0 0.0
2017-Oct-14 13:59N 25°48' W 080°15'0 0.0
2017-Oct-14 13:29N 25°48' W 080°15'0 0.0
2017-Oct-14 12:59N 25°48' W 080°15'0 0.0
2017-Oct-14 12:29N 25°48' W 080°15'0 0.0
2017-Oct-14 12:00N 25°48' W 080°15'0 0.0
2017-Oct-14 11:31N 25°48' W 080°15'0 0.0
2017-Oct-14 11:01N 25°48' W 080°15'0 0.0
2017-Oct-14 10:31N 25°48' W 080°15'0 0.0
2017-Oct-14 10:01N 25°48' W 080°15'0 0.2
2017-Oct-14 09:30N 25°48' W 080°15'1 2.5
2017-Oct-14 09:00N 25°47' W 080°13'1 3.0
2017-Oct-14 08:31N 25°46' W 080°12'1 2.8
2017-Oct-14 08:00N 25°46' W 080°10'3 6.7
2017-Oct-14 07:30N 25°45' W 080°07'2 3.5
2017-Oct-14 07:01N 25°47' W 080°05'0 0.0
2017-Oct-14 06:31N 25°47' W 080°05'0 0.0
2017-Oct-14 06:01N 25°47' W 080°05'0 0.0
2017-Oct-14 05:30N 25°47' W 080°05'0 0.0
2017-Oct-14 05:00N 25°47' W 080°05'0 0.0
2017-Oct-14 04:30N 25°47' W 080°05'0 0.0
2017-Oct-14 04:00N 25°47' W 080°05'0 0.0
2017-Oct-14 03:28N 25°47' W 080°05'0 0.0
2017-Oct-14 03:00N 25°47' W 080°05'0 0.0
2017-Oct-14 02:30N 25°47' W 080°05'0 0.0
2017-Oct-14 02:00N 25°47' W 080°05'0 0.0
2017-Oct-14 01:28N 25°47' W 080°05'0 0.0
2017-Oct-14 00:58N 25°47' W 080°05'0 0.0
2017-Oct-14 00:28N 25°47' W 080°05'0 0.0
2017-Oct-13 23:58N 25°47' W 080°05'1 1.6
2017-Oct-13 23:30N 25°46' W 080°05'511.0
2017-Oct-13 23:01N 25°41' W 080°02'713.5
2017-Oct-13 22:30N 25°35' W 079°59'713.7
2017-Oct-13 22:01N 25°29' W 079°56'  
2017-Oct-07 09:42N 25°58' W 079°30'211.1
2017-Oct-07 09:31N 25°57' W 079°32'611.3
2017-Oct-07 09:01N 25°55' W 079°38'611.3
2017-Oct-07 08:31N 25°53' W 079°44'611.1
2017-Oct-07 08:00N 25°51' W 079°50'511.0
2017-Oct-07 07:31N 25°49' W 079°55'510.6
2017-Oct-07 07:01N 25°48' W 080°01'510.0
2017-Oct-07 06:31N 25°46' W 080°06'4 8.4
2017-Oct-07 06:01N 25°46' W 080°11'1 2.4
2017-Oct-07 05:30N 25°46' W 080°12'2 3.1
2017-Oct-07 05:00N 25°47' W 080°13'1 2.4
2017-Oct-07 04:30N 25°48' W 080°15'0 0.3
2017-Oct-07 04:00N 25°48' W 080°15'0 0.0
2017-Oct-07 03:30N 25°48' W 080°15'0 0.0
2017-Oct-07 03:00N 25°48' W 080°15'0 0.0
2017-Oct-07 02:30N 25°48' W 080°15'0 0.0
2017-Oct-07 02:00N 25°48' W 080°15'0 0.0
2017-Oct-07 01:30N 25°48' W 080°15'0 0.0
2017-Oct-07 01:00N 25°48' W 080°15'0 0.0
2017-Oct-07 00:30N 25°48' W 080°15'0 0.0
2017-Oct-07 00:00N 25°48' W 080°15'0 0.0
2017-Oct-06 23:30N 25°48' W 080°15'0 0.0
2017-Oct-06 22:57N 25°48' W 080°15'0 0.0
2017-Oct-06 22:30N 25°48' W 080°15'0 0.0
2017-Oct-06 22:00N 25°48' W 080°15'0 0.0
2017-Oct-06 21:27N 25°48' W 080°15'0 0.0
2017-Oct-06 21:00N 25°48' W 080°15'0 0.0
2017-Oct-06 20:30N 25°48' W 080°15'0 0.0
2017-Oct-06 20:00N 25°48' W 080°15'0 0.0
2017-Oct-06 19:30N 25°48' W 080°15'0 0.0
2017-Oct-06 18:57N 25°48' W 080°15'0 0.0
2017-Oct-06 18:30N 25°48' W 080°15'0 0.0
2017-Oct-06 17:54N 25°48' W 080°15'0 0.0
2017-Oct-06 17:30N 25°48' W 080°15'0 0.0
2017-Oct-06 17:00N 25°48' W 080°15'0 0.0
2017-Oct-06 16:30N 25°48' W 080°15'0 0.0
2017-Oct-06 15:54N 25°48' W 080°15'0 0.0
2017-Oct-06 15:30N 25°48' W 080°15'0 0.0
2017-Oct-06 15:00N 25°48' W 080°15'0 0.0
2017-Oct-06 14:30N 25°48' W 080°15'0 0.0
2017-Oct-06 13:57N 25°48' W 080°15'0 0.0
2017-Oct-06 13:30N 25°48' W 080°15'0 0.0
2017-Oct-06 12:57N 25°48' W 080°15'0 0.0
2017-Oct-06 12:30N 25°48' W 080°15'1 1.2
2017-Oct-06 12:00N 25°47' W 080°14'1 2.8
2017-Oct-06 11:30N 25°47' W 080°13'1 2.6
2017-Oct-06 11:00N 25°46' W 080°12'2 3.2
2017-Oct-06 10:30N 25°46' W 080°10'510.3
2017-Oct-06 10:00N 25°45' W 080°04'3 5.8
2017-Oct-06 09:30N 25°43' W 080°03'4 8.3
2017-Oct-06 09:00N 25°39' W 080°01'510.3
2017-Oct-06 08:30N 25°34' W 079°59'510.4
2017-Oct-06 08:00N 25°29' W 079°57'611.1
2017-Oct-06 07:28N 25°24' W 079°54'  
Track history (hours):
 
Tides and Currents Weather Stations Pressure Air Temp Water Temp Dewpoint Dewpoint Depression Visibility Wind Speed Wind Dir Waves Ship Positions

Babun Express

Last reported at 2017-Oct-15 04:09 UTC. Time now 2017-Oct-17 20:17 UTC.
Position N 25°22' W 079°54'.

Length 91 m; draft 3.9 m.

Type: Cargo ship. MMSI: 214182626.

Date/timePositionNaut miles runAvg speedWind from/ knotsBaromVisibWave heightAir tempDewpointWater temp
2017-Oct-15 04:09N 25°22' W 079°54'2 9.1
2017-Oct-15 03:59N 25°23' W 079°55'4 9.2
2017-Oct-15 03:30N 25°27' W 079°56'5 9.5
2017-Oct-15 03:00N 25°32' W 079°59'5 9.7
2017-Oct-15 02:31N 25°36' W 080°01'5 9.6
2017-Oct-15 02:00N 25°41' W 080°03'611.7
2017-Oct-15 01:30N 25°46' W 080°05'4 8.1
2017-Oct-15 01:00N 25°46' W 080°10'2 3.0
2017-Oct-15 00:24N 25°46' W 080°12'1 2.6
2017-Oct-15 00:00N 25°47' W 080°13'1 2.7
2017-Oct-14 23:29N 25°47' W 080°14'1 1.4
2017-Oct-14 22:59N 25°48' W 080°15'0 0.0
2017-Oct-14 22:29N 25°48' W 080°15'0 0.0
2017-Oct-14 21:59N 25°48' W 080°15'0 0.0
2017-Oct-14 21:29N 25°48' W 080°15'0 0.0
2017-Oct-14 20:59N 25°48' W 080°15'0 0.0
2017-Oct-14 20:29N 25°48' W 080°15'0 0.0
2017-Oct-14 19:59N 25°48' W 080°15'0 0.0
2017-Oct-14 19:29N 25°48' W 080°15'0 0.0
2017-Oct-14 18:59N 25°48' W 080°15'0 0.0
2017-Oct-14 18:29N 25°48' W 080°15'0 0.0
2017-Oct-14 17:59N 25°48' W 080°15'0 0.0
2017-Oct-14 17:29N 25°48' W 080°15'0 0.0
2017-Oct-14 16:59N 25°48' W 080°15'0 0.0
2017-Oct-14 16:29N 25°48' W 080°15'0 0.0
2017-Oct-14 15:59N 25°48' W 080°15'0 0.0
2017-Oct-14 15:29N 25°48' W 080°15'0 0.0
2017-Oct-14 14:59N 25°48' W 080°15'0 0.0
2017-Oct-14 14:29N 25°48' W 080°15'0 0.0
2017-Oct-14 13:59N 25°48' W 080°15'0 0.0
2017-Oct-14 13:29N 25°48' W 080°15'0 0.0
2017-Oct-14 12:59N 25°48' W 080°15'0 0.0
2017-Oct-14 12:29N 25°48' W 080°15'0 0.0
2017-Oct-14 12:00N 25°48' W 080°15'0 0.0
2017-Oct-14 11:31N 25°48' W 080°15'0 0.0
2017-Oct-14 11:01N 25°48' W 080°15'0 0.0
2017-Oct-14 10:31N 25°48' W 080°15'0 0.0
2017-Oct-14 10:01N 25°48' W 080°15'0 0.2
2017-Oct-14 09:30N 25°48' W 080°15'1 2.5
2017-Oct-14 09:00N 25°47' W 080°13'1 3.0
2017-Oct-14 08:31N 25°46' W 080°12'1 2.8
2017-Oct-14 08:00N 25°46' W 080°10'3 6.7
2017-Oct-14 07:30N 25°45' W 080°07'2 3.5
2017-Oct-14 07:01N 25°47' W 080°05'0 0.0
2017-Oct-14 06:31N 25°47' W 080°05'0 0.0
2017-Oct-14 06:01N 25°47' W 080°05'0 0.0
2017-Oct-14 05:30N 25°47' W 080°05'0 0.0
2017-Oct-14 05:00N 25°47' W 080°05'0 0.0
2017-Oct-14 04:30N 25°47' W 080°05'0 0.0
2017-Oct-14 04:00N 25°47' W 080°05'0 0.0
2017-Oct-14 03:28N 25°47' W 080°05'0 0.0
2017-Oct-14 03:00N 25°47' W 080°05'0 0.0
2017-Oct-14 02:30N 25°47' W 080°05'0 0.0
2017-Oct-14 02:00N 25°47' W 080°05'0 0.0
2017-Oct-14 01:28N 25°47' W 080°05'0 0.0
2017-Oct-14 00:58N 25°47' W 080°05'0 0.0
2017-Oct-14 00:28N 25°47' W 080°05'0 0.0
2017-Oct-13 23:58N 25°47' W 080°05'1 1.6
2017-Oct-13 23:30N 25°46' W 080°05'511.0
2017-Oct-13 23:01N 25°41' W 080°02'713.5
2017-Oct-13 22:30N 25°35' W 079°59'713.7
2017-Oct-13 22:01N 25°29' W 079°56'  
2017-Oct-07 09:42N 25°58' W 079°30'211.1
2017-Oct-07 09:31N 25°57' W 079°32'611.3
2017-Oct-07 09:01N 25°55' W 079°38'611.3
2017-Oct-07 08:31N 25°53' W 079°44'611.1
2017-Oct-07 08:00N 25°51' W 079°50'511.0
2017-Oct-07 07:31N 25°49' W 079°55'510.6
2017-Oct-07 07:01N 25°48' W 080°01'510.0
2017-Oct-07 06:31N 25°46' W 080°06'4 8.4
2017-Oct-07 06:01N 25°46' W 080°11'1 2.4
2017-Oct-07 05:30N 25°46' W 080°12'2 3.1
2017-Oct-07 05:00N 25°47' W 080°13'1 2.4
2017-Oct-07 04:30N 25°48' W 080°15'0 0.3
2017-Oct-07 04:00N 25°48' W 080°15'0 0.0
2017-Oct-07 03:30N 25°48' W 080°15'0 0.0
2017-Oct-07 03:00N 25°48' W 080°15'0 0.0
2017-Oct-07 02:30N 25°48' W 080°15'0 0.0
2017-Oct-07 02:00N 25°48' W 080°15'0 0.0
2017-Oct-07 01:30N 25°48' W 080°15'0 0.0
2017-Oct-07 01:00N 25°48' W 080°15'0 0.0
2017-Oct-07 00:30N 25°48' W 080°15'0 0.0
2017-Oct-07 00:00N 25°48' W 080°15'0 0.0
2017-Oct-06 23:30N 25°48' W 080°15'0 0.0
2017-Oct-06 22:57N 25°48' W 080°15'0 0.0
2017-Oct-06 22:30N 25°48' W 080°15'0 0.0
2017-Oct-06 22:00N 25°48' W 080°15'0 0.0
2017-Oct-06 21:27N 25°48' W 080°15'0 0.0
2017-Oct-06 21:00N 25°48' W 080°15'0 0.0
2017-Oct-06 20:30N 25°48' W 080°15'0 0.0
2017-Oct-06 20:00N 25°48' W 080°15'0 0.0
2017-Oct-06 19:30N 25°48' W 080°15'0 0.0
2017-Oct-06 18:57N 25°48' W 080°15'0 0.0
2017-Oct-06 18:30N 25°48' W 080°15'0 0.0
2017-Oct-06 17:54N 25°48' W 080°15'0 0.0
2017-Oct-06 17:30N 25°48' W 080°15'0 0.0
2017-Oct-06 17:00N 25°48' W 080°15'0 0.0
2017-Oct-06 16:30N 25°48' W 080°15'0 0.0
2017-Oct-06 15:54N 25°48' W 080°15'0 0.0
2017-Oct-06 15:30N 25°48' W 080°15'0 0.0
2017-Oct-06 15:00N 25°48' W 080°15'0 0.0
2017-Oct-06 14:30N 25°48' W 080°15'0 0.0
2017-Oct-06 13:57N 25°48' W 080°15'0 0.0
2017-Oct-06 13:30N 25°48' W 080°15'0 0.0
2017-Oct-06 12:57N 25°48' W 080°15'0 0.0
2017-Oct-06 12:30N 25°48' W 080°15'1 1.2
2017-Oct-06 12:00N 25°47' W 080°14'1 2.8
2017-Oct-06 11:30N 25°47' W 080°13'1 2.6
2017-Oct-06 11:00N 25°46' W 080°12'2 3.2
2017-Oct-06 10:30N 25°46' W 080°10'510.3
2017-Oct-06 10:00N 25°45' W 080°04'3 5.8
2017-Oct-06 09:30N 25°43' W 080°03'4 8.3
2017-Oct-06 09:00N 25°39' W 080°01'510.3
2017-Oct-06 08:30N 25°34' W 079°59'510.4
2017-Oct-06 08:00N 25°29' W 079°57'611.1
2017-Oct-06 07:28N 25°24' W 079°54'  

Dump ship's entire track history